Time;durP1;ratioP1;P1;durP2;ratioP2;P2;SDS_P1;SDS_P2;PMS_P1;PMS_P2;Temp;Humidity;BMP_temperature;BMP_pressure;BME280_temperature;BME280_humidity;BME280_pressure;Samples;Min_cycle;Max_cycle;Signal;HPM_P1;HPM_P2
2023/04/05 00:02:39;;;;;;;;;;;;;;;;;;5073017;28;19919;-76
2023/04/05 00:05:42;;;;;;;;;;;;;;;;;;5073257;28;19919;-76
2023/04/05 00:08:48;;;;;;;;;;;;;;;;;;5072215;28;19962;-76
2023/04/05 00:11:51;;;;;;;;;;;;;;;;;;5072837;28;19920;-76
2023/04/05 00:14:54;;;;;;;;;;;;;;;;;;5073045;28;19920;-77
2023/04/05 00:17:58;;;;;;;;;;;;;;;;;;5072817;28;20038;-77
2023/04/05 00:21:02;;;;;;;;;;;;;;;;;;5073054;28;20039;-77
2023/04/05 00:24:04;;;;;;;;;;;;;;;;;;5072567;28;20354;-77
2023/04/05 00:27:07;;;;;;;;;;;;;;;;;;5072728;28;19918;-77
2023/04/05 00:30:10;;;;;;;;;;;;;;;;;;5072633;28;19962;-77
2023/04/05 00:33:13;;;;;;;;;;;;;;;;;;5060035;28;19957;-78
2023/04/05 00:36:16;;;;;;;;;;;;;;;;;;5072668;28;20025;-78
2023/04/05 00:39:18;;;;;;;;;;;;;;;;;;5072527;28;19921;-78
2023/04/05 00:42:21;;;;;;;;;;;;;;;;;;5072736;28;19936;-77
2023/04/05 00:45:24;;;;;;;;;;;;;;;;;;5072245;28;20375;-77
2023/04/05 00:48:28;;;;;;;;;;;;;;;;;;5060213;28;19919;-77
2023/04/05 00:51:32;;;;;;;;;;;;;;;;;;5072452;28;19983;-77
2023/04/05 00:54:35;;;;;;;;;;;;;;;;;;5072405;28;20339;-77
2023/04/05 00:57:38;;;;;;;;;;;;;;;;;;5072252;28;20007;-77
2023/04/05 01:00:41;;;;;;;;;;;;;;;;;;5059930;28;19919;-77
2023/04/05 01:03:44;;;;;;;;;;;;;;;;;;5072301;28;19920;-77
2023/04/05 01:06:47;;;;;;;;;;;;;;;;;;5072235;28;19923;-77
2023/04/05 01:09:50;;;;;;;;;;;;;;;;;;5059530;28;19993;-77
2023/04/05 01:12:54;;;;;;;;;;;;;;;;;;5060114;28;20063;-76
2023/04/05 01:15:56;;;;;;;;;;;;;;;;;;5056466;28;20300;-77
2023/04/05 01:18:59;;;;;;;;;;;;;;;;;;5072089;28;19974;-77
2023/04/05 01:22:12;;;;;;;;;;;;;;;;;;5072494;28;19966;-77
2023/04/05 01:25:18;;;;;;;;;;;;;;;;;;5072012;28;19923;-77
2023/04/05 01:28:20;;;;;;;;;;;;;;;;;;5059654;28;19923;-77
2023/04/05 01:31:24;;;;;;;;;;;;;;;;;;5059654;28;19919;-77
2023/04/05 01:34:27;;;;;;;;;;;;;;;;;;5072259;28;19966;-77
2023/04/05 01:37:30;;;;;;;;;;;;;;;;;;5072363;28;19919;-76
2023/04/05 01:40:33;;;;;;;;;;;;;;;;;;5064914;28;19924;-76
2023/04/05 01:43:36;;;;;;;;;;;;;;;;;;5072021;28;19998;-76
2023/04/05 01:46:38;;;;;;;;;;;;;;;;;;5059463;28;19919;-77
2023/04/05 01:49:41;;;;;;;;;;;;;;;;;;5054114;28;19924;-77
2023/04/05 01:52:44;;;;;;;;;;;;;;;;;;5059438;28;19966;-77
2023/04/05 01:55:47;;;;;;;;;;;;;;;;;;5067276;28;19923;-77
2023/04/05 01:58:49;;;;;;;;;;;;;;;;;;5075055;28;20376;-77
2023/04/05 02:01:52;;;;;;;;;;;;;;;;;;5062986;28;19920;-77
2023/04/05 02:04:55;;;;;;;;;;;;;;;;;;5062801;28;19919;-76
2023/04/05 02:07:58;;;;;;;;;;;;;;;;;;5075219;28;19919;-77
2023/04/05 02:11:01;;;;;;;;;;;;;;;;;;5062620;28;19970;-77
2023/04/05 02:14:04;;;;;;;;;;;;;;;;;;5062637;28;20302;-77
2023/04/05 02:17:06;;;;;;;;;;;;;;;;;;5062439;28;19923;-77
2023/04/05 02:20:11;;;;;;;;;;;;;;;;;;5074996;28;19966;-77
2023/04/05 02:23:14;;;;;;;;;;;;;;;;;;5062380;28;19919;-77
2023/04/05 02:26:17;;;;;;;;;;;;;;;;;;5062301;28;19966;-77
2023/04/05 02:29:20;;;;;;;;;;;;;;;;;;5074806;28;19970;-77
2023/04/05 02:32:24;;;;;;;;;;;;;;;;;;5062526;28;20284;-77
2023/04/05 02:35:27;;;;;;;;;;;;;;;;;;5074631;28;19969;-76
2023/04/05 02:38:30;;;;;;;;;;;;;;;;;;5062221;28;19966;-77
2023/04/05 02:41:33;;;;;;;;;;;;;;;;;;5074968;28;20060;-76
2023/04/05 02:44:36;;;;;;;;;;;;;;;;;;5074525;28;19919;-76
2023/04/05 02:47:39;;;;;;;;;;;;;;;;;;5061985;28;19919;-76
2023/04/05 02:50:42;;;;;;;;;;;;;;;;;;5061868;28;19923;-77
2023/04/05 02:53:45;;;;;;;;;;;;;;;;;;5061945;28;19919;-76
2023/04/05 02:56:53;;;;;;;;;;;;;;;;;;5061653;28;19924;-76
2023/04/05 02:59:59;;;;;;;;;;;;;;;;;;5062066;28;20387;-76
2023/04/05 03:03:04;;;;;;;;;;;;;;;;;;5061744;28;19958;-76
2023/04/05 03:06:08;;;;;;;;;;;;;;;;;;5061601;28;19919;-76
2023/04/05 03:09:15;;;;;;;;;;;;;;;;;;5060426;28;19928;-76
2023/04/05 03:12:18;;;;;;;;;;;;;;;;;;5061563;28;19957;-77
2023/04/05 03:15:21;;;;;;;;;;;;;;;;;;5061849;28;19923;-76
2023/04/05 03:18:25;;;;;;;;;;;;;;;;;;5061392;28;19918;-77
2023/04/05 03:21:29;;;;;;;;;;;;;;;;;;5061501;28;19938;-77
2023/04/05 03:24:41;;;;;;;;;;;;;;;;;;5061229;28;20019;-77
2023/04/05 03:27:45;;;;;;;;;;;;;;;;;;5073867;28;19920;-77
2023/04/05 03:30:51;;;;;;;;;;;;;;;;;;5061155;28;19962;-77
2023/04/05 03:33:56;;;;;;;;;;;;;;;;;;5061437;28;19919;-76
2023/04/05 03:37:02;;;;;;;;;;;;;;;;;;5061364;28;20348;-77
2023/04/05 03:40:15;;;;;;;;;;;;;;;;;;5061215;28;19967;-77
2023/04/05 03:43:18;;;;;;;;;;;;;;;;;;5072996;28;19919;-77
2023/04/05 03:46:20;;;;;;;;;;;;;;;;;;5059463;28;20334;-77
2023/04/05 03:49:25;;;;;;;;;;;;;;;;;;5073123;28;19924;-77
2023/04/05 03:52:46;;;;;;;;;;;;;;;;;;5060693;28;20375;-77
2023/04/05 03:55:49;;;;;;;;;;;;;;;;;;5060472;28;20351;-77
2023/04/05 03:58:53;;;;;;;;;;;;;;;;;;5060466;28;19974;-77
2023/04/05 04:02:01;;;;;;;;;;;;;;;;;;5058483;28;19928;-78
2023/04/05 04:05:05;;;;;;;;;;;;;;;;;;5058816;28;20046;-77
2023/04/05 04:08:09;;;;;;;;;;;;;;;;;;5058468;28;19919;-77
2023/04/05 04:11:12;;;;;;;;;;;;;;;;;;5058335;28;20210;-77
2023/04/05 04:14:17;;;;;;;;;;;;;;;;;;5071358;28;19958;-77
2023/04/05 04:17:34;;;;;;;;;;;;;;;;;;5072683;28;19958;-77
2023/04/05 04:21:05;;;;;;;;;;;;;;;;;;5051574;28;19919;-76
2023/04/05 04:24:27;;;;;;;;;;;;;;;;;;5072053;28;19967;-77
2023/04/05 04:28:05;;;;;;;;;;;;;;;;;;5058163;28;20331;-77
2023/04/05 04:31:16;;;;;;;;;;;;;;;;;;5060193;28;19979;-76
2023/04/05 04:34:53;;;;;;;;;;;;;;;;;;5060169;28;20016;-77
2023/04/05 04:38:25;;;;;;;;;;;;;;;;;;5034147;28;19919;-76
2023/04/05 04:41:54;;;;;;;;;;;;;;;;;;5070768;28;20440;-75
2023/04/05 04:45:24;;;;;;;;;;;;;;;;;;5072417;28;19919;-76
2023/04/05 04:48:42;;;;;;;;;;;;;;;;;;5060102;28;19986;-76
2023/04/05 04:52:00;;;;;;;;;;;;;;;;;;5060133;28;19919;-75
2023/04/05 04:55:03;;;;;;;;;;;;;;;;;;5059768;28;20311;-70
2023/04/05 04:58:09;;;;;;;;;;;;;;;;;;5071337;28;20280;-81
2023/04/05 05:01:25;;;;;;;;;;;;;;;;;;5061061;28;20292;-80
2023/04/05 05:04:28;;;;;;;;;;;;;;;;;;5065050;28;19959;-79
2023/04/05 05:07:32;;;;;;;;;;;;;;;;;;5065663;28;19939;-78
2023/04/05 05:10:35;;;;;;;;;;;;;;;;;;5066070;28;19966;-77
2023/04/05 05:13:40;;;;;;;;;;;;;;;;;;5047909;28;20282;-78
2023/04/05 05:16:44;;;;;;;;;;;;;;;;;;5053858;28;19920;-79
2023/04/05 05:19:48;;;;;;;;;;;;;;;;;;5072042;28;19919;-76
2023/04/05 05:22:51;;;;;;;;;;;;;;;;;;5072097;28;19923;-76
2023/04/05 05:25:56;;;;;;;;;;;;;;;;;;5069056;28;19939;-80
2023/04/05 05:29:00;;;;;;;;;;;;;;;;;;5072097;28;20228;-79
2023/04/05 05:32:06;;;;;;;;;;;;;;;;;;5059955;28;19924;-79
2023/04/05 05:35:09;;;;;;;;;;;;;;;;;;5075773;28;19919;-79
2023/04/05 05:38:12;;;;;;;;;;;;;;;;;;5075697;28;19931;-80
2023/04/05 05:41:15;;;;;;;;;;;;;;;;;;5074768;28;19939;-79
2023/04/05 05:44:18;;;;;;;;;;;;;;;;;;5075596;28;19920;-75
2023/04/05 05:47:21;;;;;;;;;;;;;;;;;;5067524;28;19987;-74
2023/04/05 05:50:24;;;;;;;;;;;;;;;;;;5067750;28;19923;-78
2023/04/05 05:53:27;;;;;;;;;;;;;;;;;;5068055;28;19931;-80
2023/04/05 05:56:30;;;;;;;;;;;;;;;;;;5068247;28;20050;-76
2023/04/05 05:59:34;;;;;;;;;;;;;;;;;;5068288;28;20392;-78
2023/04/05 06:02:37;;;;;;;;;;;;;;;;;;5069379;28;19966;-77
2023/04/05 06:05:42;;;;;;;;;;;;;;;;;;5069193;28;20209;-74
2023/04/05 06:08:46;;;;;;;;;;;;;;;;;;5075104;28;19920;-77
2023/04/05 06:11:49;;;;;;;;;;;;;;;;;;5075143;28;19922;-80
2023/04/05 06:14:53;;;;;;;;;;;;;;;;;;5075154;28;19931;-81
2023/04/05 06:17:56;;;;;;;;;;;;;;;;;;5073646;28;19919;-80
2023/04/05 06:20:59;;;;;;;;;;;;;;;;;;5074167;28;19982;-80
2023/04/05 06:24:02;;;;;;;;;;;;;;;;;;5074586;28;19920;-78
2023/04/05 06:27:15;;;;;;;;;;;;;;;;;;5074977;28;19919;-72
2023/04/05 06:30:33;;;;;;;;;;;;;;;;;;5067884;28;20334;-79
2023/04/05 06:33:42;;;;;;;;;;;;;;;;;;5069055;28;20007;-78
2023/04/05 06:36:45;;;;;;;;;;;;;;;;;;5070160;28;20042;-78
2023/04/05 06:39:50;;;;;;;;;;;;;;;;;;5070060;28;19966;-74
2023/04/05 06:42:53;;;;;;;;;;;;;;;;;;5074396;28;20002;-74
2023/04/05 06:45:59;;;;;;;;;;;;;;;;;;5059278;28;20364;-77
2023/04/05 06:49:02;;;;;;;;;;;;;;;;;;5074428;28;20019;-76
2023/04/05 06:52:05;;;;;;;;;;;;;;;;;;5073721;28;19958;-75
2023/04/05 06:55:08;;;;;;;;;;;;;;;;;;5074273;28;20388;-75
2023/04/05 06:58:11;;;;;;;;;;;;;;;;;;5074004;28;20426;-77
2023/04/05 07:01:13;;;;;;;;;;;;;;;;;;5073638;28;19924;-78
2023/04/05 07:04:16;;;;;;;;;;;;;;;;;;5073039;28;19923;-76
2023/04/05 07:07:19;;;;;;;;;;;;;;;;;;5073109;28;19966;-77
2023/04/05 07:10:22;;;;;;;;;;;;;;;;;;5065037;28;19973;-80
2023/04/05 07:13:25;;;;;;;;;;;;;;;;;;5065827;28;19919;-80
2023/04/05 07:16:28;;;;;;;;;;;;;;;;;;5066523;28;19920;-76
2023/04/05 07:19:31;;;;;;;;;;;;;;;;;;5067094;28;20008;-78
2023/04/05 07:22:56;;;;;;;;;;;;;;;;;;5067672;28;20038;-79
2023/04/05 07:26:18;;;;;;;;;;;;;;;;;;5073752;28;19939;-78
2023/04/05 07:29:26;;;;;;;;;;;;;;;;;;5061357;28;19932;-78
2023/04/05 07:32:29;;;;;;;;;;;;;;;;;;5073013;28;19973;-76
2023/04/05 07:35:35;;;;;;;;;;;;;;;;;;5073140;28;19958;-78
2023/04/05 07:38:38;;;;;;;;;;;;;;;;;;5072883;28;19935;-78
2023/04/05 07:41:41;;;;;;;;;;;;;;;;;;5073060;28;20309;-78
2023/04/05 07:44:45;;;;;;;;;;;;;;;;;;5073043;28;19966;-78
2023/04/05 07:47:48;;;;;;;;;;;;;;;;;;5073559;28;20043;-77
2023/04/05 07:50:51;;;;;;;;;;;;;;;;;;5060778;28;20451;-78
2023/04/05 07:53:55;;;;;;;;;;;;;;;;;;5073145;28;19919;-78
2023/04/05 07:56:58;;;;;;;;;;;;;;;;;;5072506;28;19928;-83
2023/04/05 08:00:00;;;;;;;;;;;;;;;;;;5071841;28;20033;-83
2023/04/05 08:03:03;;;;;;;;;;;;;;;;;;5071276;28;20052;-79
2023/04/05 08:06:07;;;;;;;;;;;;;;;;;;5071000;28;20631;-81
2023/04/05 08:09:09;;;;;;;;;;;;;;;;;;5071117;28;20334;-82
2023/04/05 08:12:57;;;;;;;;;;;;;;;;;;5051231;28;19927;-84
2023/04/05 08:16:04;;;;;;;;;;;;;;;;;;5061827;28;19919;-83
2023/04/05 08:19:06;;;;;;;;;;;;;;;;;;5053208;28;19991;-83
2023/04/05 08:22:09;;;;;;;;;;;;;;;;;;5040794;28;20012;-83
2023/04/05 08:25:12;;;;;;;;;;;;;;;;;;5052563;28;20452;-82
2023/04/05 08:28:15;;;;;;;;;;;;;;;;;;5052491;28;20042;-82
2023/04/05 08:31:19;;;;;;;;;;;;;;;;;;5040266;28;19924;-80
2023/04/05 08:34:22;;;;;;;;;;;;;;;;;;5052648;28;19959;-80
2023/04/05 08:37:25;;;;;;;;;;;;;;;;;;5053010;28;20002;-81
2023/04/05 08:40:30;;;;;;;;;;;;;;;;;;5052615;28;19975;-82
2023/04/05 08:43:34;;;;;;;;;;;;;;;;;;5040684;28;19966;-80
2023/04/05 08:46:37;;;;;;;;;;;;;;;;;;5052553;28;19992;-82
2023/04/05 08:49:40;;;;;;;;;;;;;;;;;;5052498;28;19986;-82
2023/04/05 08:52:45;;;;;;;;;;;;;;;;;;5051865;28;19920;-80
2023/04/05 08:55:50;;;;;;;;;;;;;;;;;;5047565;28;19920;-83
2023/04/05 08:59:14;;;;;;;;;;;;;;;;;;5019831;28;19928;-83
2023/04/05 09:02:55;;;;;;;;;;;;;;;;;;5031930;28;19959;-81
2023/04/05 09:05:58;;;;;;;;;;;;;;;;;;5031913;28;20000;-81
2023/04/05 09:09:00;;;;;;;;;;;;;;;;;;5036102;28;19944;-82
2023/04/05 09:12:03;;;;;;;;;;;;;;;;;;5036327;28;19920;-81
2023/04/05 09:15:06;;;;;;;;;;;;;;;;;;5036328;28;19920;-81
2023/04/05 09:18:09;;;;;;;;;;;;;;;;;;5036286;28;20392;-79
2023/04/05 09:21:12;;;;;;;;;;;;;;;;;;5036258;28;19960;-80
2023/04/05 09:24:16;;;;;;;;;;;;;;;;;;5036033;28;20403;-79
2023/04/05 09:27:18;;;;;;;;;;;;;;;;;;5036115;28;20022;-78
2023/04/05 09:30:26;;;;;;;;;;;;;;;;;;5023771;28;19959;-80
2023/04/05 09:33:29;;;;;;;;;;;;;;;;;;5035963;28;19928;-77
2023/04/05 09:36:32;;;;;;;;;;;;;;;;;;5035873;28;19923;-79
2023/04/05 09:39:35;;;;;;;;;;;;;;;;;;5034087;28;19967;-78
2023/04/05 09:42:38;;;;;;;;;;;;;;;;;;5034011;28;19959;-78
2023/04/05 09:45:41;;;;;;;;;;;;;;;;;;5022725;28;19928;-78
2023/04/05 09:48:44;;;;;;;;;;;;;;;;;;5035147;28;19920;-77
2023/04/05 09:51:47;;;;;;;;;;;;;;;;;;5034872;28;19989;-80
2023/04/05 09:54:50;;;;;;;;;;;;;;;;;;5035254;28;19920;-80
2023/04/05 09:57:53;;;;;;;;;;;;;;;;;;5051357;28;20200;-79
2023/04/05 10:01:05;;;;;;;;;;;;;;;;;;5075603;28;19927;-81
2023/04/05 10:04:08;;;;;;;;;;;;;;;;;;5075773;28;19919;-81
2023/04/05 10:07:13;;;;;;;;;;;;;;;;;;5075394;28;19966;-80
2023/04/05 10:10:16;;;;;;;;;;;;;;;;;;5075298;28;19931;-79
2023/04/05 10:13:19;;;;;;;;;;;;;;;;;;5075222;28;19966;-80
2023/04/05 10:16:22;;;;;;;;;;;;;;;;;;5075222;28;19971;-80
2023/04/05 10:19:25;;;;;;;;;;;;;;;;;;5074688;28;19997;-78
2023/04/05 10:22:27;;;;;;;;;;;;;;;;;;5075292;28;19939;-77
2023/04/05 10:25:31;;;;;;;;;;;;;;;;;;5075366;28;20000;-79
2023/04/05 10:28:35;;;;;;;;;;;;;;;;;;5062556;28;20031;-74
2023/04/05 10:31:40;;;;;;;;;;;;;;;;;;5075035;28;19963;-76
2023/04/05 10:34:43;;;;;;;;;;;;;;;;;;5074788;28;19919;-78
2023/04/05 10:37:47;;;;;;;;;;;;;;;;;;5074659;28;19919;-78
2023/04/05 10:40:50;;;;;;;;;;;;;;;;;;5075000;28;19993;-77
2023/04/05 10:43:52;;;;;;;;;;;;;;;;;;5062316;28;20487;-76
2023/04/05 10:46:55;;;;;;;;;;;;;;;;;;5075306;28;19965;-76
2023/04/05 10:49:58;;;;;;;;;;;;;;;;;;5074549;28;20410;-78
2023/04/05 10:53:01;;;;;;;;;;;;;;;;;;5074730;28;20014;-78
2023/04/05 10:56:04;;;;;;;;;;;;;;;;;;5073474;28;20042;-75
2023/04/05 10:59:07;;;;;;;;;;;;;;;;;;5060928;28;19927;-75
2023/04/05 11:02:11;;;;;;;;;;;;;;;;;;5074147;28;20288;-74
2023/04/05 11:05:15;;;;;;;;;;;;;;;;;;5074271;28;19924;-74
2023/04/05 11:08:18;;;;;;;;;;;;;;;;;;5073838;28;19920;-74
2023/04/05 11:11:26;;;;;;;;;;;;;;;;;;5074706;28;20345;-75
2023/04/05 11:14:29;;;;;;;;;;;;;;;;;;5073975;28;20007;-75
2023/04/05 11:17:32;;;;;;;;;;;;;;;;;;5073965;28;20015;-75
2023/04/05 11:20:34;;;;;;;;;;;;;;;;;;5074018;28;20018;-77
2023/04/05 11:23:37;;;;;;;;;;;;;;;;;;5073878;28;19923;-77
2023/04/05 11:26:41;;;;;;;;;;;;;;;;;;5061745;28;19964;-77
2023/04/05 11:29:44;;;;;;;;;;;;;;;;;;5073112;28;19963;-77
2023/04/05 11:32:47;;;;;;;;;;;;;;;;;;5073751;28;19923;-77
2023/04/05 11:35:52;;;;;;;;;;;;;;;;;;5073677;28;19966;-77
2023/04/05 11:38:55;;;;;;;;;;;;;;;;;;5073599;28;19935;-77
2023/04/05 11:41:58;;;;;;;;;;;;;;;;;;5073475;28;19923;-76
2023/04/05 11:45:01;;;;;;;;;;;;;;;;;;5073433;28;20406;-76
2023/04/05 11:48:05;;;;;;;;;;;;;;;;;;5072873;28;19936;-77
2023/04/05 11:51:11;;;;;;;;;;;;;;;;;;5072953;28;19924;-77
2023/04/05 11:54:14;;;;;;;;;;;;;;;;;;5072957;28;20012;-76
2023/04/05 11:57:17;;;;;;;;;;;;;;;;;;5072971;28;19931;-75
2023/04/05 12:00:20;;;;;;;;;;;;;;;;;;5073156;28;19967;-75
2023/04/05 12:03:24;;;;;;;;;;;;;;;;;;5072516;28;19919;-76
2023/04/05 12:06:27;;;;;;;;;;;;;;;;;;5073142;28;19949;-77
2023/04/05 12:09:30;;;;;;;;;;;;;;;;;;5072954;28;19922;-77
2023/04/05 12:12:33;;;;;;;;;;;;;;;;;;5073133;28;19919;-77
2023/04/05 12:15:37;;;;;;;;;;;;;;;;;;5073027;28;20421;-77
2023/04/05 12:18:40;;;;;;;;;;;;;;;;;;5072974;28;20069;-76
2023/04/05 12:21:43;;;;;;;;;;;;;;;;;;5072874;28;19990;-80
2023/04/05 12:24:46;;;;;;;;;;;;;;;;;;5060336;28;20023;-80
2023/04/05 12:27:49;;;;;;;;;;;;;;;;;;5073057;28;19931;-81
2023/04/05 12:30:52;;;;;;;;;;;;;;;;;;5071991;28;19927;-82
2023/04/05 12:33:56;;;;;;;;;;;;;;;;;;5072726;28;20395;-81
2023/04/05 12:36:59;;;;;;;;;;;;;;;;;;5072686;28;19970;-81
2023/04/05 12:40:02;;;;;;;;;;;;;;;;;;5072873;28;19919;-81
2023/04/05 12:43:05;;;;;;;;;;;;;;;;;;5072532;28;19935;-82
2023/04/05 12:46:08;;;;;;;;;;;;;;;;;;5072699;28;19918;-81
2023/04/05 12:49:11;;;;;;;;;;;;;;;;;;5072612;28;19959;-76
2023/04/05 12:52:15;;;;;;;;;;;;;;;;;;5071662;28;19923;-77
2023/04/05 12:55:20;;;;;;;;;;;;;;;;;;5071645;28;20066;-78
2023/04/05 12:58:24;;;;;;;;;;;;;;;;;;5071719;28;19927;-77
2023/04/05 13:01:26;;;;;;;;;;;;;;;;;;5072089;28;19971;-78
2023/04/05 13:04:29;;;;;;;;;;;;;;;;;;5072361;28;20000;-80
2023/04/05 13:07:33;;;;;;;;;;;;;;;;;;5072674;28;20288;-81
2023/04/05 13:10:37;;;;;;;;;;;;;;;;;;5072687;28;20033;-80
2023/04/05 13:13:44;;;;;;;;;;;;;;;;;;5072533;28;19919;-81
2023/04/05 13:16:47;;;;;;;;;;;;;;;;;;5071990;28;19969;-81
2023/04/05 13:19:53;;;;;;;;;;;;;;;;;;5072829;28;19939;-81
2023/04/05 13:22:57;;;;;;;;;;;;;;;;;;5072240;28;19920;-81
2023/04/05 13:25:59;;;;;;;;;;;;;;;;;;5072486;28;20008;-80
2023/04/05 13:29:02;;;;;;;;;;;;;;;;;;5072248;28;19918;-78
2023/04/05 13:32:05;;;;;;;;;;;;;;;;;;5072113;28;19997;-78
2023/04/05 13:35:08;;;;;;;;;;;;;;;;;;5072132;28;19963;-79
2023/04/05 13:38:11;;;;;;;;;;;;;;;;;;5071998;28;19952;-80
2023/04/05 13:41:14;;;;;;;;;;;;;;;;;;5071993;28;19974;-80
2023/04/05 13:44:19;;;;;;;;;;;;;;;;;;5072264;28;19918;-76
2023/04/05 13:47:35;;;;;;;;;;;;;;;;;;5072045;28;19919;-82
2023/04/05 13:50:40;;;;;;;;;;;;;;;;;;5071862;28;19961;-76
2023/04/05 13:53:44;;;;;;;;;;;;;;;;;;5073462;28;19920;-82
2023/04/05 13:56:47;;;;;;;;;;;;;;;;;;5075324;28;19943;-82
2023/04/05 13:59:55;;;;;;;;;;;;;;;;;;5075698;28;19935;-84
2023/04/05 14:03:00;;;;;;;;;;;;;;;;;;5075477;28;19919;-79
2023/04/05 14:06:04;;;;;;;;;;;;;;;;;;5063188;28;20017;-80
2023/04/05 14:09:08;;;;;;;;;;;;;;;;;;5075270;28;19920;-80
2023/04/05 14:12:11;;;;;;;;;;;;;;;;;;5075335;28;19919;-70
2023/04/05 14:15:16;;;;;;;;;;;;;;;;;;5075551;28;19918;-71
2023/04/05 14:18:20;;;;;;;;;;;;;;;;;;5075515;28;19969;-80
2023/04/05 14:21:23;;;;;;;;;;;;;;;;;;5075499;28;19922;-79
2023/04/05 14:24:27;;;;;;;;;;;;;;;;;;5075203;28;19962;-81
2023/04/05 14:27:29;;;;;;;;;;;;;;;;;;5075267;28;20300;-81
2023/04/05 14:30:32;;;;;;;;;;;;;;;;;;5074952;28;19943;-81
2023/04/05 14:33:35;;;;;;;;;;;;;;;;;;5074302;28;20028;-81
2023/04/05 14:36:38;;;;;;;;;;;;;;;;;;5074167;28;19919;-81
2023/04/05 14:39:41;;;;;;;;;;;;;;;;;;5061725;28;20342;-81
2023/04/05 14:42:44;;;;;;;;;;;;;;;;;;5073394;28;19919;-81
2023/04/05 14:45:47;;;;;;;;;;;;;;;;;;5075216;28;19923;-79
2023/04/05 14:48:50;;;;;;;;;;;;;;;;;;5074828;28;20011;-79
2023/04/05 14:51:53;;;;;;;;;;;;;;;;;;5074883;28;19983;-79
2023/04/05 14:54:56;;;;;;;;;;;;;;;;;;5075040;28;19958;-80
2023/04/05 14:57:58;;;;;;;;;;;;;;;;;;5074606;28;19928;-81
2023/04/05 15:01:02;;;;;;;;;;;;;;;;;;5074574;28;19919;-80
2023/04/05 15:04:05;;;;;;;;;;;;;;;;;;5074266;28;20053;-78
2023/04/05 15:07:14;;;;;;;;;;;;;;;;;;5074407;28;19919;-76
2023/04/05 15:11:09;;;;;;;;;;;;;;;;;;5073175;28;19961;-80
2023/04/05 15:14:12;;;;;;;;;;;;;;;;;;5071895;28;19918;-80
2023/04/05 15:17:14;;;;;;;;;;;;;;;;;;5072902;28;20007;-80
2023/04/05 15:20:17;;;;;;;;;;;;;;;;;;5072175;28;19943;-80
2023/04/05 15:23:24;;;;;;;;;;;;;;;;;;5072923;28;19918;-79
2023/04/05 15:26:27;;;;;;;;;;;;;;;;;;5073800;28;19922;-79
2023/04/05 15:29:30;;;;;;;;;;;;;;;;;;5073546;28;19924;-80
2023/04/05 15:32:33;;;;;;;;;;;;;;;;;;5061345;28;19922;-81
2023/04/05 15:35:36;;;;;;;;;;;;;;;;;;5073799;28;19923;-79
2023/04/05 15:38:43;;;;;;;;;;;;;;;;;;5073979;28;20284;-80
2023/04/05 15:41:46;;;;;;;;;;;;;;;;;;5073830;28;19935;-80
2023/04/05 15:44:49;;;;;;;;;;;;;;;;;;5073786;28;19920;-80
2023/04/05 15:47:52;;;;;;;;;;;;;;;;;;5073571;28;19920;-80
2023/04/05 15:50:56;;;;;;;;;;;;;;;;;;5073199;28;19924;-81
2023/04/05 15:53:59;;;;;;;;;;;;;;;;;;5072549;28;19959;-80
2023/04/05 15:57:04;;;;;;;;;;;;;;;;;;5073055;28;19927;-80
2023/04/05 16:00:07;;;;;;;;;;;;;;;;;;5072379;28;19965;-78
2023/04/05 16:03:10;;;;;;;;;;;;;;;;;;5073444;28;20071;-78
2023/04/05 16:06:13;;;;;;;;;;;;;;;;;;5073254;28;19935;-78
2023/04/05 16:09:16;;;;;;;;;;;;;;;;;;5073089;28;19919;-79
2023/04/05 16:12:19;;;;;;;;;;;;;;;;;;5073053;28;20015;-79
2023/04/05 16:15:22;;;;;;;;;;;;;;;;;;5073039;28;20434;-80
2023/04/05 16:18:24;;;;;;;;;;;;;;;;;;5073007;28;19919;-80
2023/04/05 16:21:27;;;;;;;;;;;;;;;;;;5072878;28;19967;-80
2023/04/05 16:24:32;;;;;;;;;;;;;;;;;;5072769;28;19962;-78
2023/04/05 16:27:36;;;;;;;;;;;;;;;;;;5072831;28;19959;-77
2023/04/05 16:30:38;;;;;;;;;;;;;;;;;;5072728;28;19924;-76
2023/04/05 16:33:41;;;;;;;;;;;;;;;;;;5072507;28;19920;-76
2023/04/05 16:36:44;;;;;;;;;;;;;;;;;;5072707;28;19967;-75
2023/04/05 16:39:47;;;;;;;;;;;;;;;;;;5072838;28;19923;-76
2023/04/05 16:42:50;;;;;;;;;;;;;;;;;;5072861;28;19919;-76
2023/04/05 16:45:53;;;;;;;;;;;;;;;;;;5072450;28;20379;-76
2023/04/05 16:48:56;;;;;;;;;;;;;;;;;;5072815;28;19924;-75
2023/04/05 16:51:59;;;;;;;;;;;;;;;;;;5072340;28;19970;-75
2023/04/05 16:55:02;;;;;;;;;;;;;;;;;;5072309;28;19924;-75
2023/04/05 16:58:05;;;;;;;;;;;;;;;;;;5072254;28;19974;-75
2023/04/05 17:01:08;;;;;;;;;;;;;;;;;;5072341;28;19920;-75
2023/04/05 17:04:10;;;;;;;;;;;;;;;;;;5072745;28;19919;-74
2023/04/05 17:07:13;;;;;;;;;;;;;;;;;;5072021;28;19919;-74
2023/04/05 17:10:16;;;;;;;;;;;;;;;;;;5072278;28;20395;-75
2023/04/05 17:13:19;;;;;;;;;;;;;;;;;;5072372;28;19935;-75
2023/04/05 17:16:22;;;;;;;;;;;;;;;;;;5072163;28;19919;-74
2023/04/05 17:19:25;;;;;;;;;;;;;;;;;;5072223;28;19920;-74
2023/04/05 17:22:30;;;;;;;;;;;;;;;;;;5072092;28;20296;-75
2023/04/05 17:25:33;;;;;;;;;;;;;;;;;;5072161;28;19966;-74
2023/04/05 17:28:36;;;;;;;;;;;;;;;;;;5073143;28;20295;-74
2023/04/05 17:31:40;;;;;;;;;;;;;;;;;;5076038;28;19940;-74
2023/04/05 17:34:44;;;;;;;;;;;;;;;;;;5075240;28;19923;-75
2023/04/05 17:37:47;;;;;;;;;;;;;;;;;;5075935;28;19920;-75
2023/04/05 17:40:50;;;;;;;;;;;;;;;;;;5075687;28;19918;-75
2023/04/05 17:43:53;;;;;;;;;;;;;;;;;;5075612;28;20418;-75
2023/04/05 17:46:56;;;;;;;;;;;;;;;;;;5075933;28;20276;-76
2023/04/05 17:50:00;;;;;;;;;;;;;;;;;;5075681;28;19961;-76
2023/04/05 17:53:03;;;;;;;;;;;;;;;;;;5075703;28;20388;-76
2023/04/05 17:56:05;;;;;;;;;;;;;;;;;;5075772;28;20300;-75
2023/04/05 17:59:09;;;;;;;;;;;;;;;;;;5063116;28;20015;-75
2023/04/05 18:02:12;;;;;;;;;;;;;;;;;;5075499;28;20006;-75
2023/04/05 18:05:15;;;;;;;;;;;;;;;;;;5074671;28;19970;-75
2023/04/05 18:08:19;;;;;;;;;;;;;;;;;;5075269;28;20292;-75
2023/04/05 18:11:21;;;;;;;;;;;;;;;;;;5075131;28;20345;-74
2023/04/05 18:14:24;;;;;;;;;;;;;;;;;;5075101;28;20054;-75
2023/04/05 18:17:28;;;;;;;;;;;;;;;;;;5074969;28;19920;-75
2023/04/05 18:20:31;;;;;;;;;;;;;;;;;;5075130;28;19998;-75
2023/04/05 18:23:33;;;;;;;;;;;;;;;;;;5074314;28;19919;-75
2023/04/05 18:26:37;;;;;;;;;;;;;;;;;;5073328;28;19920;-75
2023/04/05 18:29:40;;;;;;;;;;;;;;;;;;5074852;28;19922;-76
2023/04/05 18:32:44;;;;;;;;;;;;;;;;;;5075126;28;20308;-76
2023/04/05 18:35:47;;;;;;;;;;;;;;;;;;5075259;28;19923;-76
2023/04/05 18:38:50;;;;;;;;;;;;;;;;;;5074570;28;19951;-75
2023/04/05 18:41:53;;;;;;;;;;;;;;;;;;5075356;28;19920;-74
2023/04/05 18:44:59;;;;;;;;;;;;;;;;;;5074848;28;19921;-75
2023/04/05 18:48:02;;;;;;;;;;;;;;;;;;5074813;28;19966;-74
2023/04/05 18:51:05;;;;;;;;;;;;;;;;;;5074517;28;19932;-75
2023/04/05 18:54:08;;;;;;;;;;;;;;;;;;5074832;28;19919;-76
2023/04/05 18:57:10;;;;;;;;;;;;;;;;;;5074495;28;19927;-76
2023/04/05 19:00:15;;;;;;;;;;;;;;;;;;5074839;28;19938;-75
2023/04/05 19:03:18;;;;;;;;;;;;;;;;;;5074591;28;19919;-74
2023/04/05 19:06:20;;;;;;;;;;;;;;;;;;5074685;28;19966;-74
2023/04/05 19:09:25;;;;;;;;;;;;;;;;;;5074353;28;20433;-75
2023/04/05 19:12:29;;;;;;;;;;;;;;;;;;5061986;28;19919;-75
2023/04/05 19:15:35;;;;;;;;;;;;;;;;;;5074216;28;20038;-75
2023/04/05 19:18:39;;;;;;;;;;;;;;;;;;5073957;28;19926;-75
2023/04/05 19:21:44;;;;;;;;;;;;;;;;;;5061809;28;19920;-75
2023/04/05 19:24:50;;;;;;;;;;;;;;;;;;5073952;28;20330;-75
2023/04/05 19:27:54;;;;;;;;;;;;;;;;;;5074090;28;19969;-75
2023/04/05 19:30:58;;;;;;;;;;;;;;;;;;5061662;28;19969;-75
2023/04/05 19:34:01;;;;;;;;;;;;;;;;;;5073957;28;19993;-74
2023/04/05 19:37:04;;;;;;;;;;;;;;;;;;5074004;28;19926;-75
2023/04/05 19:40:07;;;;;;;;;;;;;;;;;;5073978;28;19963;-76
2023/04/05 19:43:10;;;;;;;;;;;;;;;;;;5073803;28;19923;-75
2023/04/05 19:46:14;;;;;;;;;;;;;;;;;;5073596;28;20293;-75
2023/04/05 19:49:17;;;;;;;;;;;;;;;;;;5061385;28;20387;-76
2023/04/05 19:52:20;;;;;;;;;;;;;;;;;;5060306;28;20302;-75
2023/04/05 19:55:24;;;;;;;;;;;;;;;;;;5073472;28;19919;-75
2023/04/05 19:58:27;;;;;;;;;;;;;;;;;;5073187;28;19978;-74
2023/04/05 20:01:30;;;;;;;;;;;;;;;;;;5073568;28;19920;-75
2023/04/05 20:04:37;;;;;;;;;;;;;;;;;;5073303;28;19920;-75
2023/04/05 20:07:40;;;;;;;;;;;;;;;;;;5073028;28;20429;-75
2023/04/05 20:10:46;;;;;;;;;;;;;;;;;;5073146;28;20393;-75
2023/04/05 20:13:49;;;;;;;;;;;;;;;;;;5073110;28;19957;-75
2023/04/05 20:16:52;;;;;;;;;;;;;;;;;;5073409;28;20007;-76
2023/04/05 20:19:56;;;;;;;;;;;;;;;;;;5073002;28;19934;-75
2023/04/05 20:22:58;;;;;;;;;;;;;;;;;;5060391;28;19919;-75
2023/04/05 20:26:01;;;;;;;;;;;;;;;;;;5072920;28;19991;-75
2023/04/05 20:29:04;;;;;;;;;;;;;;;;;;5060488;28;20003;-75
2023/04/05 20:32:08;;;;;;;;;;;;;;;;;;5072878;28;19977;-75
2023/04/05 20:35:10;;;;;;;;;;;;;;;;;;5073023;28;19974;-75
2023/04/05 20:38:14;;;;;;;;;;;;;;;;;;5072774;28;19918;-75
2023/04/05 20:41:18;;;;;;;;;;;;;;;;;;5073028;28;19923;-76
2023/04/05 20:44:21;;;;;;;;;;;;;;;;;;5072780;28;19966;-76
2023/04/05 20:47:24;;;;;;;;;;;;;;;;;;5072776;28;19918;-76
2023/04/05 20:50:27;;;;;;;;;;;;;;;;;;5072536;28;20446;-76
2023/04/05 20:53:30;;;;;;;;;;;;;;;;;;5072593;28;19923;-75
2023/04/05 20:56:33;;;;;;;;;;;;;;;;;;5072606;28;20457;-76
2023/04/05 20:59:36;;;;;;;;;;;;;;;;;;5072734;28;19935;-76
2023/04/05 21:02:39;;;;;;;;;;;;;;;;;;5074085;28;20011;-75